« うみたか入港 七尾港 2014/7/13 sun | トップページ | 燦くる~ず 伏木港 2014/7/16 wed »

2014/07/14

遠藤 能登空港 2014/7/13 sun

七尾港の「うみたか」公開をそっちのけで、能登空港に転進。ダイヤ改正されてから、東京からの第1便が早くなったからだ。でも、のと里山海道のおかげで時間が読める移動ができる。

RJNW 130000Z 35003KT 300V040 8000 -RA FEW035 BKN070 OVC100 22/20 Q1004

20140713_rjnw_00ja2435

JA2435 SF25C

雨が降りそうなのに、航空学園はモグラで訓練開始。

20140713_rjnw_01ja62an

20140713_rjnw_02ja62an

20140713_rjnw_03ja62an_2

20140713_rjnw_04ja62an

ANA747 RJTT-RJNW JA62AN B737-881

さて、標題の何が「遠藤」なのか? 本日から大相撲名古屋場所が開催されるが、それに合わせてか、能登地元の遠藤関を初めとする日本相撲協会公認グッズがのと鉄道穴水駅で販売開始とな・・ 

穴水駅に遠藤グッズ のと鉄道が販売へ (北國新聞)

20140713_rjnw_05endo

空港搭乗ゲート脇には、遠藤関の等身大たてかんが・・ 残念ながら初日は、黒星。

20140713_rjnw_06ana

1F全日空カウンター脇では、七夕飾りに「星に願いを」開催中。

20140713_rjnw_07ja62an

駐機中のB3は給油も終了。

20140713_rjnw_08ja62an

20140713_rjnw_09ja62an

20140713_rjnw_10ja62an

20140713_rjnw_11ja62an

20140713_rjnw_12ja62an

20140713_rjnw_13ja62an

ANA748 RJNW-RJTT JA62AN B737-881

RJNW 130200Z 07005KT 8000 -RA FEW010 BKN060 OVC080 23/20 Q1003

これで、また七尾港に引き返します。雨が降ってきた。

|

« うみたか入港 七尾港 2014/7/13 sun | トップページ | 燦くる~ず 伏木港 2014/7/16 wed »

能登空港」カテゴリの記事

コメント

コメントを書く



(ウェブ上には掲載しません)


コメントは記事投稿者が公開するまで表示されません。



トラックバック


この記事へのトラックバック一覧です: 遠藤 能登空港 2014/7/13 sun:

« うみたか入港 七尾港 2014/7/13 sun | トップページ | 燦くる~ず 伏木港 2014/7/16 wed »